Date,TemperatureHighF,TemperatureAvgF,TemperatureLowF,DewpointHighF,DewpointAvgF,DewpointLowF,HumidityHigh,HumidityAvg,HumidityLow,PressureMaxIn,PressureMinIn,WindSpeedMaxMPH,WindSpeedAvgMPH,GustSpeedMaxMPH,PrecipitationSumIn
2013-9-1,81.5,70.6,64.6,72.0,67.4,64.0,100,91,68,29.97,29.77,7,0,7,0.48
2013-9-2,67.6,64.9,62.8,67.0,64.2,62.0,100,98,95,29.99,29.77,13,1,13,1.30
2013-9-3,76.3,68.5,64.4,71.0,66.8,64.0,100,95,81,29.79,29.70,9,1,9,0.05
2013-9-4,77.9,67.1,58.8,66.0,59.7,55.0,100,81,48,29.90,29.73,15,1,15,0.00
2013-9-5,65.2,56.9,44.2,59.0,50.1,40.0,99,81,41,30.13,29.77,12,1,12,0.32
2013-9-6,66.7,54.6,40.2,50.0,43.9,38.0,100,72,41,30.22,29.90,12,1,13,0.00
2013-9-7,73.9,61.2,48.4,59.0,53.6,48.0,100,79,45,30.04,29.68,7,1,7,0.01
2013-9-8,60.9,56.6,42.8,59.0,50.8,40.0,99,83,55,30.04,29.69,20,2,21,0.38
2013-9-9,66.5,51.9,38.4,50.0,44.4,38.0,99,79,44,30.19,30.04,9,1,9,0.00
2013-9-10,67.4,59.3,52.0,60.0,56.3,50.0,99,91,75,30.12,30.05,9,1,9,0.00
2013-9-11,80.5,68.5,59.6,72.0,65.5,59.0,100,92,75,30.08,29.88,11,1,11,0.00
2013-9-12,76.9,67.8,64.2,72.0,66.5,64.0,100,97,85,30.02,29.67,10,1,10,0.36
2013-9-13,67.6,63.8,57.9,67.0,63.2,58.0,100,99,95,29.72,29.61,13,0,13,0.85
2013-9-14,68.8,60.8,51.3,60.0,57.0,50.0,100,89,68,30.02,29.68,10,1,10,0.01
2013-9-15,68.8,59.2,48.2,55.0,51.0,47.0,100,78,51,30.13,30.01,9,1,9,0.00
2013-9-16,60.8,53.9,44.2,57.0,48.4,35.0,100,82,67,30.25,29.97,17,2,17,0.00
2013-9-17,65.1,48.8,35.8,48.0,41.0,35.0,98,78,45,30.39,30.24,14,1,14,0.00
2013-9-18,70.9,54.7,40.9,52.0,45.8,38.0,100,77,32,30.29,30.09,10,1,10,0.00
2013-9-19,74.9,58.1,44.0,57.0,50.1,44.0,100,79,40,30.13,30.01,9,1,9,0.00
2013-9-20,75.7,60.4,46.1,58.0,52.9,46.0,100,80,50,30.12,29.90,6,1,6,0.00
2013-9-21,67.1,59.0,51.1,60.0,56.7,50.0,100,94,76,30.07,29.81,15,2,15,0.00
2013-9-22,67.0,61.9,54.5,64.0,59.9,48.0,99,94,79,29.81,29.61,15,2,15,0.52
2013-9-23,54.5,50.3,44.4,48.0,42.5,40.0,86,75,66,29.90,29.73,20,4,20,0.00
2013-9-24,51.7,49.2,45.3,46.0,43.0,40.0,92,79,73,29.90,29.81,18,3,18,0.06
2013-9-25,60.7,52.1,45.6,49.0,46.7,44.0,97,82,63,29.98,29.84,16,1,16,0.00
2013-9-26,63.2,54.0,45.1,51.0,48.9,44.0,99,84,64,30.14,29.97,14,1,14,0.00
2013-9-27,71.6,57.8,48.2,56.0,51.8,47.0,100,83,51,30.27,30.13,9,1,9,0.00
2013-9-28,71.6,56.6,46.0,56.0,50.4,46.0,100,83,44,30.37,30.26,8,1,8,0.00
2013-9-29,70.1,53.9,43.0,56.0,46.5,43.0,100,81,42,30.29,30.10,8,1,8,0.00
2013-9-30,64.9,51.5,44.7,50.0,45.7,38.0,100,84,39,30.16,29.99,6,1,6,0.00